Time;durP1;ratioP1;P1;durP2;ratioP2;P2;SDS_P1;SDS_P2;PMS_P1;PMS_P2;Temp;Humidity;BMP_temperature;BMP_pressure;BME280_temperature;BME280_humidity;BME280_pressure;Samples;Min_cycle;Max_cycle;Signal;HPM_P1;HPM_P2
2022/06/02 00:02:19;;;;;;;;;;;10.50;99.90;;;;;;4994856;28;19916;-57
2022/06/02 00:05:06;;;;;;;;;;;10.50;99.90;;;;;;4995090;28;19906;-57
2022/06/02 00:07:48;;;;;;;;;;;10.60;99.90;;;;;;4993512;28;19906;-57
2022/06/02 00:10:19;;;;;;;;;;;10.70;99.90;;;;;;4995153;28;19906;-58
2022/06/02 00:12:51;;;;;;;;;;;10.80;99.90;;;;;;4994768;28;19959;-58
2022/06/02 00:15:26;;;;;;;;;;;10.90;99.90;;;;;;4994965;28;20293;-57
2022/06/02 00:18:00;;;;;;;;;;;11.10;99.90;;;;;;4994686;28;19968;-58
2022/06/02 00:20:32;;;;;;;;;;;11.30;99.90;;;;;;4995083;28;19941;-57
2022/06/02 00:23:09;;;;;;;;;;;11.20;99.90;;;;;;4994900;28;19906;-58
2022/06/02 00:25:35;;;;;;;;;;;11.20;99.90;;;;;;4994856;28;19933;-57
2022/06/02 00:28:05;;;;;;;;;;;11.00;99.90;;;;;;4994735;28;19910;-60
2022/06/02 00:30:33;;;;;;;;;;;10.90;99.90;;;;;;4995633;28;19906;-57
2022/06/02 00:32:59;;;;;;;;;;;10.80;99.90;;;;;;4994580;28;19912;-57
2022/06/02 00:35:31;;;;;;;;;;;10.80;99.90;;;;;;4994390;28;20275;-57
2022/06/02 00:38:18;;;;;;;;;;;10.80;99.90;;;;;;4994498;28;19997;-58
2022/06/02 00:40:44;;;;;;;;;;;10.70;99.90;;;;;;4994791;28;19920;-57
2022/06/02 00:43:31;;;;;;;;;;;10.80;99.90;;;;;;4994728;28;19920;-58
2022/06/02 00:46:15;;;;;;;;;;;10.80;99.90;;;;;;4994897;28;19906;-58
2022/06/02 00:48:50;;;;;;;;;;;10.70;99.90;;;;;;4994349;28;19917;-58
2022/06/02 00:51:21;;;;;;;;;;;10.60;99.90;;;;;;4994629;28;19910;-61
2022/06/02 00:59:55;;;;;;;;;;;10.50;99.90;;;;;;4994643;28;19989;-58
2022/06/02 01:02:22;;;;;;;;;;;10.50;99.90;;;;;;4994124;28;19918;-56
2022/06/02 01:04:47;;;;;;;;;;;10.50;99.90;;;;;;4994178;28;19933;-58
2022/06/02 01:07:21;;;;;;;;;;;10.40;99.90;;;;;;4993977;28;19906;-57
2022/06/02 01:10:00;;;;;;;;;;;10.20;99.90;;;;;;4994080;28;19918;-58
2022/06/02 01:12:26;;;;;;;;;;;10.10;99.90;;;;;;4994369;28;20008;-57
2022/06/02 01:15:03;;;;;;;;;;;9.90;99.90;;;;;;4993794;28;19980;-58
2022/06/02 01:17:50;;;;;;;;;;;9.80;99.90;;;;;;4993755;28;19917;-58
2022/06/02 01:20:38;;;;;;;;;;;9.90;99.90;;;;;;4994123;28;19910;-57
2022/06/02 01:23:26;;;;;;;;;;;10.00;99.90;;;;;;4994126;28;19906;-57
2022/06/02 01:25:55;;;;;;;;;;;10.00;99.90;;;;;;4992685;28;19906;-57
2022/06/02 01:28:23;;;;;;;;;;;10.00;99.90;;;;;;4993505;28;20418;-58
2022/06/02 01:31:00;;;;;;;;;;;10.00;99.90;;;;;;4993624;28;19949;-57
2022/06/02 01:33:34;;;;;;;;;;;10.10;99.90;;;;;;4993505;28;19905;-57
2022/06/02 01:36:18;;;;;;;;;;;10.00;99.90;;;;;;4993299;28;19910;-58
2022/06/02 01:38:46;;;;;;;;;;;9.80;99.90;;;;;;4993481;28;20362;-57
2022/06/02 01:41:12;;;;;;;;;;;9.80;99.90;;;;;;4992265;28;19916;-58
2022/06/02 01:43:43;;;;;;;;;;;9.70;99.90;;;;;;4993936;28;19992;-57
2022/06/02 01:46:14;;;;;;;;;;;9.80;99.90;;;;;;4993932;28;19906;-57
2022/06/02 01:48:40;;;;;;;;;;;9.80;99.90;;;;;;4994273;28;19964;-57
2022/06/02 01:51:24;;;;;;;;;;;9.80;99.90;;;;;;4993983;28;19906;-57
2022/06/02 01:54:08;;;;;;;;;;;10.00;99.90;;;;;;4992238;28;19928;-57
2022/06/02 01:56:52;;;;;;;;;;;10.30;99.90;;;;;;4993235;28;19929;-58
2022/06/02 01:59:29;;;;;;;;;;;10.20;99.90;;;;;;4993324;28;20294;-57
2022/06/02 02:02:16;;;;;;;;;;;10.20;99.90;;;;;;4993074;28;19910;-57
2022/06/02 02:04:57;;;;;;;;;;;10.00;99.90;;;;;;4993633;28;20390;-58
2022/06/02 02:07:29;;;;;;;;;;;9.70;99.90;;;;;;4992209;28;20258;-58
2022/06/02 02:09:55;;;;;;;;;;;9.50;99.90;;;;;;4992301;28;19906;-57
2022/06/02 02:12:20;;;;;;;;;;;9.30;99.90;;;;;;4992694;28;20263;-57
2022/06/02 02:15:01;;;;;;;;;;;9.10;99.90;;;;;;4992643;28;19960;-56
2022/06/02 02:17:32;;;;;;;;;;;9.00;99.90;;;;;;4993380;28;19912;-57
2022/06/02 02:20:00;;;;;;;;;;;8.90;99.90;;;;;;4992824;28;19917;-57
2022/06/02 02:22:32;;;;;;;;;;;8.90;99.90;;;;;;4992789;28;19921;-57
2022/06/02 02:25:16;;;;;;;;;;;8.90;99.90;;;;;;4993270;28;19914;-57
2022/06/02 02:30:30;;;;;;;;;;;8.90;99.90;;;;;;4992981;28;19913;-57
2022/06/02 02:33:02;;;;;;;;;;;8.90;99.90;;;;;;4992854;28;19910;-57
2022/06/02 02:35:33;;;;;;;;;;;8.80;99.90;;;;;;4992500;28;19913;-57
2022/06/02 02:38:10;;;;;;;;;;;8.90;99.90;;;;;;4992742;28;19906;-58
2022/06/02 02:40:41;;;;;;;;;;;8.90;99.90;;;;;;4991542;28;19969;-58
2022/06/02 02:43:07;;;;;;;;;;;9.10;99.90;;;;;;4992765;28;19906;-58
2022/06/02 02:45:49;;;;;;;;;;;9.00;99.90;;;;;;4992580;28;19913;-59
2022/06/02 02:48:33;;;;;;;;;;;8.90;99.90;;;;;;4992286;28;19910;-59
2022/06/02 02:51:07;;;;;;;;;;;8.80;99.90;;;;;;4992557;28;19905;-58
2022/06/02 02:54:05;;;;;;;;;;;8.70;99.90;;;;;;4992913;28;19992;-58
2022/06/02 02:56:35;;;;;;;;;;;8.70;99.90;;;;;;4991363;28;19905;-57
2022/06/02 02:59:05;;;;;;;;;;;8.80;99.90;;;;;;4992751;28;19905;-58
2022/06/02 03:01:40;;;;;;;;;;;8.70;99.90;;;;;;4993013;28;19940;-58
2022/06/02 03:04:08;;;;;;;;;;;8.60;99.90;;;;;;4992805;28;19960;-57
2022/06/02 03:06:39;;;;;;;;;;;8.60;99.90;;;;;;4992815;28;19921;-57
2022/06/02 03:09:08;;;;;;;;;;;8.50;99.90;;;;;;4993017;28;19960;-57
2022/06/02 03:11:40;;;;;;;;;;;8.50;99.90;;;;;;4992615;28;19941;-58
2022/06/02 03:14:25;;;;;;;;;;;8.40;99.90;;;;;;4992240;28;20367;-57
2022/06/02 03:17:02;;;;;;;;;;;8.50;99.90;;;;;;4992821;28;19920;-57
2022/06/02 03:19:28;;;;;;;;;;;8.60;99.90;;;;;;5007787;28;19906;-57
2022/06/02 03:22:12;;;;;;;;;;;8.60;99.90;;;;;;4996082;28;19910;-58
2022/06/02 03:24:50;;;;;;;;;;;8.60;99.90;;;;;;4995935;28;19906;-58
2022/06/02 03:27:21;;;;;;;;;;;8.60;99.90;;;;;;4995290;28;19905;-58
2022/06/02 03:30:05;;;;;;;;;;;8.60;99.90;;;;;;4995843;28;19916;-57
2022/06/02 03:32:49;;;;;;;;;;;8.70;99.90;;;;;;4995892;28;20322;-57
2022/06/02 03:35:15;;;;;;;;;;;8.80;99.90;;;;;;4995900;28;19906;-58
2022/06/02 03:37:59;;;;;;;;;;;8.60;99.90;;;;;;4995705;28;19959;-58
2022/06/02 03:40:24;;;;;;;;;;;8.50;99.90;;;;;;4995667;28;20488;-57
2022/06/02 03:42:56;;;;;;;;;;;8.30;99.90;;;;;;4995590;28;19910;-57
2022/06/02 03:45:31;;;;;;;;;;;8.20;99.90;;;;;;4996021;28;19906;-57
2022/06/02 03:48:20;;;;;;;;;;;8.30;99.90;;;;;;4995429;28;19956;-58
2022/06/02 03:50:48;;;;;;;;;;;8.50;99.90;;;;;;4995722;28;19912;-62
2022/06/02 03:53:29;;;;;;;;;;;8.60;99.90;;;;;;4995311;28;19912;-57
2022/06/02 03:56:09;;;;;;;;;;;8.90;99.90;;;;;;4995823;28;19905;-57
2022/06/02 03:58:41;;;;;;;;;;;8.90;99.90;;;;;;4995521;28;19933;-57
2022/06/02 04:01:09;;;;;;;;;;;8.90;99.90;;;;;;4995616;28;19937;-57
2022/06/02 04:03:37;;;;;;;;;;;8.80;99.90;;;;;;4995580;28;19906;-57
2022/06/02 04:06:21;;;;;;;;;;;8.70;99.90;;;;;;4995160;28;20382;-57
2022/06/02 04:08:56;;;;;;;;;;;8.70;99.90;;;;;;4995362;28;19910;-57
2022/06/02 04:14:28;;;;;;;;;;;8.60;99.90;;;;;;4994899;28;20389;-57
2022/06/02 04:17:00;;;;;;;;;;;8.60;99.90;;;;;;4995018;28;20000;-57
2022/06/02 04:22:25;;;;;;;;;;;8.80;99.90;;;;;;4994724;28;19920;-57
2022/06/02 04:24:53;;;;;;;;;;;8.70;99.90;;;;;;4995018;28;19940;-57
2022/06/02 04:27:25;;;;;;;;;;;8.70;99.90;;;;;;4994604;28;19905;-57
2022/06/02 04:30:06;;;;;;;;;;;8.70;99.90;;;;;;4994970;28;19932;-57
2022/06/02 04:32:54;;;;;;;;;;;8.60;99.90;;;;;;4994279;28;19906;-58
2022/06/02 04:35:23;;;;;;;;;;;8.70;99.90;;;;;;4994499;28;19909;-58
2022/06/02 04:38:06;;;;;;;;;;;8.60;99.90;;;;;;4994764;28;19906;-58
2022/06/02 04:40:42;;;;;;;;;;;8.60;99.90;;;;;;4995036;28;19956;-57
2022/06/02 04:43:19;;;;;;;;;;;8.80;99.90;;;;;;4995116;28;19920;-57
2022/06/02 04:46:01;;;;;;;;;;;9.00;99.90;;;;;;4994532;28;20347;-57
2022/06/02 04:48:33;;;;;;;;;;;9.20;99.90;;;;;;4993340;28;19906;-58
2022/06/02 04:51:07;;;;;;;;;;;9.20;99.90;;;;;;4995059;28;19975;-58
2022/06/02 04:53:37;;;;;;;;;;;9.20;99.90;;;;;;4994462;28;19941;-57
2022/06/02 04:56:09;;;;;;;;;;;9.30;99.90;;;;;;4994579;28;19906;-62
2022/06/02 04:58:43;;;;;;;;;;;9.40;99.90;;;;;;4994490;28;19906;-59
2022/06/02 05:01:20;;;;;;;;;;;9.50;99.90;;;;;;4994630;28;19910;-58
2022/06/02 05:04:24;;;;;;;;;;;9.50;99.90;;;;;;4994158;28;19918;-57
2022/06/02 05:06:52;;;;;;;;;;;9.70;99.90;;;;;;4991835;28;20373;-58
2022/06/02 05:09:46;;;;;;;;;;;9.80;99.90;;;;;;4992117;28;19909;-57
2022/06/02 05:12:24;;;;;;;;;;;10.00;99.90;;;;;;4976361;28;19945;-57
2022/06/02 05:14:59;;;;;;;;;;;9.90;99.90;;;;;;4993414;28;20125;-57
2022/06/02 05:17:43;;;;;;;;;;;9.90;99.90;;;;;;4993534;28;19906;-58
2022/06/02 05:20:17;;;;;;;;;;;10.00;99.90;;;;;;4993804;28;19909;-58
2022/06/02 05:23:01;;;;;;;;;;;10.20;99.90;;;;;;4993814;28;19910;-58
2022/06/02 05:25:29;;;;;;;;;;;10.70;99.90;;;;;;4993982;28;19956;-58
2022/06/02 05:28:14;;;;;;;;;;;10.90;99.90;;;;;;4992387;28;19906;-58
2022/06/02 05:30:39;;;;;;;;;;;11.00;99.90;;;;;;4993595;28;19936;-59
2022/06/02 05:33:24;;;;;;;;;;;11.20;99.90;;;;;;4994096;28;20398;-58
2022/06/02 05:36:01;;;;;;;;;;;11.30;99.90;;;;;;4992719;28;19906;-58
2022/06/02 05:38:45;;;;;;;;;;;11.40;99.90;;;;;;4993617;28;20068;-59
2022/06/02 05:41:14;;;;;;;;;;;11.30;99.90;;;;;;4989542;28;19936;-61
2022/06/02 05:43:57;;;;;;;;;;;11.20;99.90;;;;;;4992559;28;20207;-59
2022/06/02 05:46:41;;;;;;;;;;;11.30;99.90;;;;;;4993035;28;19906;-57
2022/06/02 05:49:25;;;;;;;;;;;11.30;99.90;;;;;;4993232;28;19952;-57
2022/06/02 05:52:04;;;;;;;;;;;11.20;99.90;;;;;;4993080;28;20329;-58
2022/06/02 05:54:48;;;;;;;;;;;11.20;99.90;;;;;;4992435;28;19906;-58
2022/06/02 05:57:16;;;;;;;;;;;11.30;99.90;;;;;;4992631;28;19906;-57
2022/06/02 05:59:42;;;;;;;;;;;11.30;99.90;;;;;;5000883;28;19921;-57
2022/06/02 06:02:16;;;;;;;;;;;11.40;99.90;;;;;;4998903;28;20196;-57
2022/06/02 06:04:42;;;;;;;;;;;11.70;99.90;;;;;;4987623;28;19909;-57
2022/06/02 06:07:14;;;;;;;;;;;12.00;99.90;;;;;;4985094;28;20298;-58
2022/06/02 06:09:43;;;;;;;;;;;12.10;99.90;;;;;;4982738;28;19925;-59
2022/06/02 06:12:08;;;;;;;;;;;12.30;99.90;;;;;;4981671;28;20441;-58
2022/06/02 06:14:37;;;;;;;;;;;12.30;99.90;;;;;;4973023;28;20041;-58
2022/06/02 06:17:08;;;;;;;;;;;12.30;99.90;;;;;;4973703;28;19910;-57
2022/06/02 06:19:37;;;;;;;;;;;12.20;99.90;;;;;;4968946;28;21284;-57
2022/06/02 06:22:21;;;;;;;;;;;12.40;99.90;;;;;;4975716;28;19921;-57
2022/06/02 06:24:50;;;;;;;;;;;12.50;99.90;;;;;;4973950;28;19917;-58
2022/06/02 06:27:38;;;;;;;;;;;12.60;99.90;;;;;;4973059;28;19914;-58
2022/06/02 06:30:06;;;;;;;;;;;12.80;99.90;;;;;;4980990;28;20075;-58
2022/06/02 06:32:34;;;;;;;;;;;12.80;99.90;;;;;;4970949;28;20175;-57
2022/06/02 06:35:23;;;;;;;;;;;12.90;99.90;;;;;;4961198;28;19918;-59
2022/06/02 06:37:57;;;;;;;;;;;13.20;99.90;;;;;;4961495;28;20036;-58
2022/06/02 06:40:26;;;;;;;;;;;13.80;99.90;;;;;;4956024;28;20116;-58
2022/06/02 06:43:01;;;;;;;;;;;14.70;99.90;;;;;;4957657;28;19957;-58
2022/06/02 06:45:43;;;;;;;;;;;16.10;99.90;;;;;;4951604;28;19930;-56
2022/06/02 06:48:35;;;;;;;;;;;17.30;99.90;;;;;;4950753;28;19964;-58
2022/06/02 06:51:07;;;;;;;;;;;18.50;99.90;;;;;;4954143;28;21095;-57
2022/06/02 06:53:40;;;;;;;;;;;19.60;99.90;;;;;;4958060;28;19918;-57
2022/06/02 06:56:11;;;;;;;;;;;20.60;99.90;;;;;;4954898;28;19921;-57
2022/06/02 06:58:45;;;;;;;;;;;21.40;99.90;;;;;;4959951;28;20142;-57
2022/06/02 07:01:31;;;;;;;;;;;22.10;98.80;;;;;;4961334;28;20389;-57
2022/06/02 07:04:05;;;;;;;;;;;22.90;96.10;;;;;;4963661;28;19924;-57
2022/06/02 07:06:37;;;;;;;;;;;23.10;94.80;;;;;;4959343;28;19918;-57
2022/06/02 07:09:09;;;;;;;;;;;22.70;94.70;;;;;;4969057;28;20657;-58
2022/06/02 07:14:30;;;;;;;;;;;23.90;91.80;;;;;;4960716;28;19951;-57
2022/06/02 07:16:58;;;;;;;;;;;23.90;90.90;;;;;;4959367;28;20346;-58
2022/06/02 07:19:38;;;;;;;;;;;24.10;89.10;;;;;;4969191;28;19961;-55
2022/06/02 07:22:23;;;;;;;;;;;24.60;87.60;;;;;;4959368;28;19921;-56
2022/06/02 07:25:08;;;;;;;;;;;24.50;84.90;;;;;;4972119;28;19917;-56
2022/06/02 07:27:37;;;;;;;;;;;24.80;85.00;;;;;;4966120;28;19917;-57
2022/06/02 07:30:24;;;;;;;;;;;25.00;84.80;;;;;;4965009;28;19918;-55
2022/06/02 07:32:49;;;;;;;;;;;24.80;85.00;;;;;;4974618;28;19918;-55
2022/06/02 07:35:30;;;;;;;;;;;24.00;86.50;;;;;;4965694;28;19972;-56
2022/06/02 07:37:58;;;;;;;;;;;23.60;89.20;;;;;;4968999;28;20088;-56
2022/06/02 07:40:26;;;;;;;;;;;25.30;84.30;;;;;;4960754;28;20514;-58
2022/06/02 07:43:04;;;;;;;;;;;24.50;83.50;;;;;;4970287;28;19952;-58
2022/06/02 07:45:38;;;;;;;;;;;23.30;86.30;;;;;;4963319;28;19913;-58
2022/06/02 07:48:22;;;;;;;;;;;23.10;88.60;;;;;;4965728;28;20021;-58
2022/06/02 07:51:08;;;;;;;;;;;23.30;87.30;;;;;;4966626;28;19992;-58
2022/06/02 07:53:52;;;;;;;;;;;23.60;87.40;;;;;;4963934;28;19988;-58
2022/06/02 07:56:30;;;;;;;;;;;23.20;85.50;;;;;;4975867;28;19909;-58
2022/06/02 07:59:16;;;;;;;;;;;23.40;85.10;;;;;;4968803;28;19918;-58
2022/06/02 08:01:48;;;;;;;;;;;23.40;84.40;;;;;;4959315;28;19928;-59
2022/06/02 08:04:19;;;;;;;;;;;23.20;83.40;;;;;;4958707;28;19987;-57
2022/06/02 08:06:48;;;;;;;;;;;23.00;84.10;;;;;;4963209;28;20351;-57
2022/06/02 08:09:27;;;;;;;;;;;23.00;84.80;;;;;;4966187;28;19924;-57
2022/06/02 08:11:55;;;;;;;;;;;22.50;86.60;;;;;;4963124;28;19925;-56
2022/06/02 08:14:35;;;;;;;;;;;23.30;85.10;;;;;;4961695;28;19926;-57
2022/06/02 08:17:16;;;;;;;;;;;23.70;82.50;;;;;;4964650;28;19917;-57
2022/06/02 08:19:44;;;;;;;;;;;24.10;81.40;;;;;;4964106;28;19918;-57
2022/06/02 08:22:12;;;;;;;;;;;24.40;80.10;;;;;;4964441;28;19921;-58
2022/06/02 08:24:54;;;;;;;;;;;23.50;81.40;;;;;;4971533;28;20743;-58
2022/06/02 08:27:26;;;;;;;;;;;21.70;86.90;;;;;;4957933;28;19922;-59
2022/06/02 08:30:01;;;;;;;;;;;20.50;90.50;;;;;;4954913;28;19917;-58
2022/06/02 08:32:42;;;;;;;;;;;19.60;91.60;;;;;;4972983;28;19917;-57
2022/06/02 08:35:24;;;;;;;;;;;19.80;91.90;;;;;;4963720;28;19925;-58
2022/06/02 08:38:10;;;;;;;;;;;20.00;91.80;;;;;;4959798;28;20401;-56
2022/06/02 08:40:41;;;;;;;;;;;20.80;91.10;;;;;;4963279;28;19925;-57
2022/06/02 08:43:09;;;;;;;;;;;22.30;87.50;;;;;;4964627;28;19917;-57
2022/06/02 08:45:44;;;;;;;;;;;23.10;85.90;;;;;;4961957;28;19920;-57
2022/06/02 08:48:21;;;;;;;;;;;23.10;81.30;;;;;;4967771;28;20371;-57
2022/06/02 08:50:56;;;;;;;;;;;22.60;83.90;;;;;;4964359;28;19918;-57
2022/06/02 08:53:21;;;;;;;;;;;23.00;83.60;;;;;;4970674;28;19913;-58
2022/06/02 08:56:11;;;;;;;;;;;23.80;81.10;;;;;;5002755;23;19929;-57
2022/06/02 08:58:36;;;;;;;;;;;23.90;81.40;;;;;;4979104;28;20696;-58
2022/06/02 09:01:10;;;;;;;;;;;24.10;80.40;;;;;;4983587;28;19921;-58
2022/06/02 09:03:55;;;;;;;;;;;25.10;77.90;;;;;;4979371;28;20566;-58
2022/06/02 09:06:39;;;;;;;;;;;25.90;76.60;;;;;;4980557;28;19963;-58
2022/06/02 09:09:25;;;;;;;;;;;25.80;76.60;;;;;;4983948;28;19924;-58
2022/06/02 09:12:05;;;;;;;;;;;25.30;75.40;;;;;;4995478;28;20908;-58
2022/06/02 09:14:40;;;;;;;;;;;24.70;76.10;;;;;;4982715;28;19984;-58
2022/06/02 09:17:07;;;;;;;;;;;23.70;77.90;;;;;;4974904;28;20467;-59
2022/06/02 09:19:35;;;;;;;;;;;22.70;79.80;;;;;;4983275;28;19972;-58
2022/06/02 09:22:07;;;;;;;;;;;22.70;80.70;;;;;;4981761;28;20101;-58
2022/06/02 09:25:11;;;;;;;;;;;23.00;80.90;;;;;;4983118;28;20019;-58
2022/06/02 09:27:48;;;;;;;;;;;23.00;81.00;;;;;;4968663;28;20014;-58
2022/06/02 09:30:16;;;;;;;;;;;22.70;82.30;;;;;;4975457;28;19949;-58
2022/06/02 09:32:41;;;;;;;;;;;22.50;82.90;;;;;;4983378;28;20015;-58
2022/06/02 09:35:23;;;;;;;;;;;22.20;83.20;;;;;;4978345;28;20547;-58
2022/06/02 09:37:54;;;;;;;;;;;22.50;83.00;;;;;;4978736;28;19924;-59
2022/06/02 09:40:20;;;;;;;;;;;22.90;82.00;;;;;;4976428;28;20716;-58
2022/06/02 09:43:01;;;;;;;;;;;22.50;79.10;;;;;;4976926;28;19917;-58
2022/06/02 09:45:29;;;;;;;;;;;21.30;85.00;;;;;;4978672;28;20142;-57
2022/06/02 09:48:03;;;;;;;;;;;22.10;85.00;;;;;;4977202;28;19917;-58
2022/06/02 09:50:48;;;;;;;;;;;23.00;82.80;;;;;;4989446;28;19924;-57
2022/06/02 09:53:22;;;;;;;;;;;24.60;78.40;;;;;;4974980;28;19918;-58
2022/06/02 09:56:06;;;;;;;;;;;26.20;74.70;;;;;;4980250;28;20322;-58
2022/06/02 09:58:38;;;;;;;;;;;26.00;74.80;;;;;;4978072;28;20302;-58
2022/06/02 10:01:22;;;;;;;;;;;25.00;74.50;;;;;;4975111;28;19965;-59
2022/06/02 10:04:02;;;;;;;;;;;24.50;74.70;;;;;;4982297;28;20000;-59
2022/06/02 10:06:46;;;;;;;;;;;24.60;74.40;;;;;;4980004;28;19967;-58
2022/06/02 10:09:23;;;;;;;;;;;25.30;75.20;;;;;;4980701;28;19924;-58
2022/06/02 10:11:55;;;;;;;;;;;26.30;72.00;;;;;;4979626;28;20567;-58
2022/06/02 10:14:27;;;;;;;;;;;26.70;71.10;;;;;;4985590;28;19913;-58
2022/06/02 10:17:13;;;;;;;;;;;26.80;69.90;;;;;;4982562;28;19917;-58
2022/06/02 10:19:39;;;;;;;;;;;27.20;70.50;;;;;;4981024;28;19916;-58
2022/06/02 10:22:25;;;;;;;;;;;26.50;68.80;;;;;;4981349;28;20313;-59
2022/06/02 10:25:09;;;;;;;;;;;25.90;68.60;;;;;;4973661;28;19972;-58
2022/06/02 10:27:37;;;;;;;;;;;24.00;74.80;;;;;;4983144;28;20020;-58
2022/06/02 10:30:19;;;;;;;;;;;23.30;77.50;;;;;;4980006;28;19963;-56
2022/06/02 10:33:02;;;;;;;;;;;23.20;76.80;;;;;;4984076;28;19941;-56
2022/06/02 10:35:46;;;;;;;;;;;23.10;78.30;;;;;;4984325;28;19921;-56
2022/06/02 10:38:26;;;;;;;;;;;23.10;77.00;;;;;;4986146;28;19925;-56
2022/06/02 10:40:55;;;;;;;;;;;23.40;76.40;;;;;;4975997;28;19921;-56
2022/06/02 10:43:40;;;;;;;;;;;24.20;75.30;;;;;;4983264;28;19917;-56
2022/06/02 10:46:21;;;;;;;;;;;24.70;73.40;;;;;;4983036;28;20038;-56
2022/06/02 10:49:07;;;;;;;;;;;25.00;72.30;;;;;;4989270;28;19917;-56
2022/06/02 10:51:51;;;;;;;;;;;25.30;73.10;;;;;;4989105;28;19917;-56
2022/06/02 10:54:35;;;;;;;;;;;24.50;73.20;;;;;;4982144;28;19928;-56
2022/06/02 10:57:01;;;;;;;;;;;25.00;74.00;;;;;;4983010;28;19924;-56
2022/06/02 10:59:38;;;;;;;;;;;24.80;74.90;;;;;;4984131;28;20331;-56
2022/06/02 11:02:22;;;;;;;;;;;25.30;73.10;;;;;;4983407;28;20436;-56
2022/06/02 11:05:19;;;;;;;;;;;25.70;73.40;;;;;;4999047;28;20328;-57
2022/06/02 11:07:44;;;;;;;;;;;25.90;72.20;;;;;;4998353;28;19917;-56
2022/06/02 11:10:19;;;;;;;;;;;27.00;68.40;;;;;;4984756;28;19913;-56
2022/06/02 11:12:47;;;;;;;;;;;26.20;71.50;;;;;;4987615;28;19913;-54
2022/06/02 11:15:18;;;;;;;;;;;26.10;70.60;;;;;;4984701;28;19992;-54
2022/06/02 11:18:06;;;;;;;;;;;26.70;69.60;;;;;;4982573;28;19964;-54
2022/06/02 11:20:40;;;;;;;;;;;27.20;68.50;;;;;;4979136;28;19924;-54
2022/06/02 11:23:09;;;;;;;;;;;27.30;67.40;;;;;;4980565;28;20341;-54
2022/06/02 11:25:43;;;;;;;;;;;27.20;67.70;;;;;;4976053;28;20422;-54
2022/06/02 11:28:27;;;;;;;;;;;27.00;66.00;;;;;;4980484;28;19968;-56
2022/06/02 11:31:11;;;;;;;;;;;26.80;65.40;;;;;;4979470;28;20239;-57
2022/06/02 11:33:36;;;;;;;;;;;26.60;67.50;;;;;;4970409;28;20303;-57
2022/06/02 11:36:15;;;;;;;;;;;26.80;67.50;;;;;;4978233;28;19924;-55
2022/06/02 11:38:59;;;;;;;;;;;27.30;65.20;;;;;;4973126;28;19918;-55
2022/06/02 11:41:28;;;;;;;;;;;27.00;66.30;;;;;;4978922;28;19917;-54
2022/06/02 11:44:12;;;;;;;;;;;27.50;64.70;;;;;;4981674;28;19917;-54
2022/06/02 11:46:40;;;;;;;;;;;27.00;65.90;;;;;;4981774;28;19922;-54
2022/06/02 11:49:24;;;;;;;;;;;27.70;64.90;;;;;;4986470;28;19917;-54
2022/06/02 11:52:19;;;;;;;;;;;28.20;63.10;;;;;;4998821;28;19925;-56
2022/06/02 11:55:03;;;;;;;;;;;27.40;66.60;;;;;;4984000;28;20118;-55
2022/06/02 11:57:34;;;;;;;;;;;27.60;65.20;;;;;;4979725;28;20409;-55
2022/06/02 12:00:00;;;;;;;;;;;27.50;65.00;;;;;;4980000;28;20457;-56
2022/06/02 12:02:29;;;;;;;;;;;27.90;64.40;;;;;;4985486;28;19921;-56
2022/06/02 12:05:27;;;;;;;;;;;28.70;62.40;;;;;;4982478;28;19917;-56
2022/06/02 12:08:02;;;;;;;;;;;29.10;61.90;;;;;;4987308;28;19918;-55
2022/06/02 12:10:42;;;;;;;;;;;29.00;61.30;;;;;;4980833;28;19925;-56
2022/06/02 12:13:12;;;;;;;;;;;28.60;61.50;;;;;;4980267;28;20394;-55
2022/06/02 12:15:57;;;;;;;;;;;27.90;62.60;;;;;;4975949;28;20557;-55
2022/06/02 12:18:28;;;;;;;;;;;28.00;62.70;;;;;;4979997;28;19918;-56
2022/06/02 12:21:21;;;;;;;;;;;28.30;61.20;;;;;;4981005;28;19921;-56
2022/06/02 12:23:58;;;;;;;;;;;28.20;61.10;;;;;;4982049;28;19917;-56
2022/06/02 12:26:23;;;;;;;;;;;28.40;61.10;;;;;;4973275;28;19924;-55
2022/06/02 12:28:55;;;;;;;;;;;28.30;60.50;;;;;;4987431;28;20289;-55
2022/06/02 12:31:38;;;;;;;;;;;28.80;60.10;;;;;;4984761;28;20041;-56
2022/06/02 12:34:26;;;;;;;;;;;27.70;61.30;;;;;;4987816;28;19947;-56
2022/06/02 12:37:04;;;;;;;;;;;26.40;63.30;;;;;;4986778;28;20282;-56
2022/06/02 12:39:41;;;;;;;;;;;26.40;64.70;;;;;;4985517;28;20393;-56
2022/06/02 12:42:27;;;;;;;;;;;27.20;62.00;;;;;;4977360;28;19947;-56
2022/06/02 12:45:10;;;;;;;;;;;27.80;62.10;;;;;;4974462;28;20197;-56
2022/06/02 12:47:44;;;;;;;;;;;28.50;60.70;;;;;;4978022;28;19924;-55
2022/06/02 12:50:10;;;;;;;;;;;29.10;61.60;;;;;;4980991;28;20878;-55
2022/06/02 12:52:35;;;;;;;;;;;29.30;59.40;;;;;;4987795;28;20243;-55
2022/06/02 12:55:01;;;;;;;;;;;29.90;58.60;;;;;;4983174;28;20387;-55
2022/06/02 12:57:26;;;;;;;;;;;29.20;57.70;;;;;;4983560;28;19917;-56
2022/06/02 12:59:52;;;;;;;;;;;29.10;58.40;;;;;;4985679;28;19923;-56
2022/06/02 13:02:36;;;;;;;;;;;29.80;58.90;;;;;;4996583;28;20951;-56
2022/06/02 13:05:22;;;;;;;;;;;29.70;57.50;;;;;;4990083;28;20399;-56
2022/06/02 13:08:07;;;;;;;;;;;29.60;57.70;;;;;;4991471;28;19917;-55
2022/06/02 13:10:48;;;;;;;;;;;29.50;58.20;;;;;;4992512;28;19979;-55
2022/06/02 13:13:32;;;;;;;;;;;29.60;58.40;;;;;;4995384;28;19917;-56
2022/06/02 13:16:01;;;;;;;;;;;29.40;57.60;;;;;;4995521;28;20367;-56
2022/06/02 13:18:29;;;;;;;;;;;29.00;58.30;;;;;;5002990;28;19999;-56
2022/06/02 13:21:14;;;;;;;;;;;29.40;58.00;;;;;;5001613;28;20285;-56
2022/06/02 13:23:50;;;;;;;;;;;30.00;56.70;;;;;;4998822;28;20229;-57
2022/06/02 13:26:35;;;;;;;;;;;29.70;56.70;;;;;;5002652;28;19925;-56
2022/06/02 13:29:20;;;;;;;;;;;30.00;57.90;;;;;;5003042;28;19971;-57
2022/06/02 13:31:58;;;;;;;;;;;30.20;57.40;;;;;;5005594;28;19917;-56
2022/06/02 13:34:29;;;;;;;;;;;29.60;57.10;;;;;;5001097;28;19909;-56
2022/06/02 13:37:04;;;;;;;;;;;29.00;57.90;;;;;;5003642;28;19984;-56
2022/06/02 13:39:41;;;;;;;;;;;29.40;57.70;;;;;;5005901;28;19984;-56
2022/06/02 13:42:38;;;;;;;;;;;29.60;56.70;;;;;;5002498;28;20025;-54
2022/06/02 13:45:27;;;;;;;;;;;28.90;57.30;;;;;;5015784;28;20317;-55
2022/06/02 13:48:11;;;;;;;;;;;29.00;58.30;;;;;;5000682;28;19913;-54
2022/06/02 13:51:02;;;;;;;;;;;30.10;56.40;;;;;;5005118;28;20301;-54
2022/06/02 13:59:32;;;;;;;;;;;29.30;56.40;;;;;;5001986;28;19975;-55
2022/06/02 14:02:16;;;;;;;;;;;28.60;57.90;;;;;;5000191;28;19918;-55
2022/06/02 14:04:51;;;;;;;;;;;28.90;57.70;;;;;;4999005;28;20381;-55
2022/06/02 14:07:24;;;;;;;;;;;29.90;55.60;;;;;;5000536;28;19992;-55
2022/06/02 14:09:55;;;;;;;;;;;29.70;55.90;;;;;;5016213;28;20012;-55
2022/06/02 14:12:24;;;;;;;;;;;29.00;56.50;;;;;;5001018;28;19913;-56
2022/06/02 14:15:02;;;;;;;;;;;29.60;55.30;;;;;;5001741;28;19909;-55
2022/06/02 14:17:35;;;;;;;;;;;30.50;54.70;;;;;;5000356;28;19921;-56
2022/06/02 14:20:22;;;;;;;;;;;30.20;55.30;;;;;;4999976;28;20290;-55
2022/06/02 14:23:24;;;;;;;;;;;29.60;55.90;;;;;;5001441;28;19948;-56
2022/06/02 14:25:56;;;;;;;;;;;30.30;54.60;;;;;;4980685;28;19929;-56
2022/06/02 14:28:54;;;;;;;;;;;30.30;53.80;;;;;;4998809;28;19952;-56
2022/06/02 14:31:28;;;;;;;;;;;30.50;54.60;;;;;;4992017;28;20008;-55
2022/06/02 14:34:07;;;;;;;;;;;29.90;55.40;;;;;;5003070;28;19932;-55
2022/06/02 14:36:49;;;;;;;;;;;29.90;56.00;;;;;;5000027;28;19917;-55
2022/06/02 14:39:15;;;;;;;;;;;29.70;56.50;;;;;;5002954;28;19921;-56
2022/06/02 14:41:53;;;;;;;;;;;29.50;55.90;;;;;;5002355;28;19918;-56
2022/06/02 14:44:28;;;;;;;;;;;27.90;56.70;;;;;;5003278;28;19929;-56
2022/06/02 14:47:04;;;;;;;;;;;28.10;56.20;;;;;;4999004;28;19940;-56
2022/06/02 14:49:35;;;;;;;;;;;28.50;56.80;;;;;;5002792;28;20281;-56
2022/06/02 14:52:01;;;;;;;;;;;28.60;56.30;;;;;;5000623;28;19949;-55
2022/06/02 14:54:31;;;;;;;;;;;29.20;55.40;;;;;;5003358;28;20432;-55
2022/06/02 14:57:05;;;;;;;;;;;28.90;54.70;;;;;;5004274;28;19906;-56
2022/06/02 14:59:34;;;;;;;;;;;28.00;56.70;;;;;;5004480;28;19909;-55
2022/06/02 15:02:17;;;;;;;;;;;28.30;55.20;;;;;;5011706;28;19909;-56
2022/06/02 15:04:53;;;;;;;;;;;27.70;55.20;;;;;;5009996;28;20433;-55
2022/06/02 15:07:25;;;;;;;;;;;27.80;55.50;;;;;;5013258;28;20310;-55
2022/06/02 15:10:06;;;;;;;;;;;27.60;55.20;;;;;;5025364;28;19933;-56
2022/06/02 15:12:41;;;;;;;;;;;26.10;57.00;;;;;;5009999;28;19971;-55
2022/06/02 15:15:25;;;;;;;;;;;25.50;58.80;;;;;;5002647;28;19906;-55
2022/06/02 15:18:04;;;;;;;;;;;25.20;58.60;;;;;;5006579;28;19917;-56
2022/06/02 15:21:02;;;;;;;;;;;25.50;59.20;;;;;;5007130;28;19955;-56
2022/06/02 15:23:47;;;;;;;;;;;25.80;60.70;;;;;;4994582;28;19921;-55
2022/06/02 15:26:27;;;;;;;;;;;26.40;58.00;;;;;;5006510;28;19916;-55
2022/06/02 15:29:12;;;;;;;;;;;25.90;57.50;;;;;;5006700;28;20885;-55
2022/06/02 15:31:56;;;;;;;;;;;26.30;57.80;;;;;;5008271;28;19915;-56
2022/06/02 15:34:28;;;;;;;;;;;27.00;58.30;;;;;;5008323;28;19914;-56
2022/06/02 15:36:56;;;;;;;;;;;27.30;58.00;;;;;;5009033;28;19913;-56
2022/06/02 15:39:37;;;;;;;;;;;27.50;57.30;;;;;;5008311;28;19909;-56